Time;durP1;ratioP1;P1;durP2;ratioP2;P2;SDS_P1;SDS_P2;PMS_P1;PMS_P2;Temp;Humidity;BMP_temperature;BMP_pressure;BME280_temperature;BME280_humidity;BME280_pressure;Samples;Min_cycle;Max_cycle;Signal;HPM_P1;HPM_P2
2023/09/05 00:00:17;;;;;;;6.47;2.38;;;18.10;99.90;;;;;;4995984;28;20081;-50
2023/09/05 00:02:45;;;;;;;3.80;2.85;;;18.20;99.90;;;;;;4996083;28;20033;-53
2023/09/05 00:05:12;;;;;;;6.70;3.13;;;18.10;99.90;;;;;;4978613;28;20108;-52
2023/09/05 00:07:39;;;;;;;4.47;2.60;;;18.20;99.90;;;;;;4960080;28;20074;-53
2023/09/05 00:10:11;;;;;;;2.88;2.65;;;18.20;99.90;;;;;;4976819;28;20059;-53
2023/09/05 00:12:40;;;;;;;2.50;2.30;;;18.20;99.90;;;;;;4976774;28;20111;-53
2023/09/05 00:15:14;;;;;;;3.88;3.58;;;18.20;99.90;;;;;;4976945;28;20030;-53
2023/09/05 00:17:40;;;;;;;2.50;2.30;;;18.10;99.90;;;;;;4976942;28;20027;-52
2023/09/05 00:20:07;;;;;;;2.60;2.40;;;18.10;99.90;;;;;;4993299;28;20038;-51
2023/09/05 00:22:33;;;;;;;5.20;2.70;;;18.10;99.90;;;;;;4979980;28;20038;-51
2023/09/05 00:24:59;;;;;;;2.38;1.92;;;18.10;99.90;;;;;;4996001;28;20368;-39
2023/09/05 00:27:25;;;;;;;2.67;2.25;;;18.10;99.90;;;;;;4995695;28;20109;-39
2023/09/05 00:29:50;;;;;;;3.58;2.63;;;18.10;99.90;;;;;;4995786;28;20026;-40
2023/09/05 00:32:18;;;;;;;2.67;2.47;;;18.10;99.90;;;;;;4995804;28;20061;-38
2023/09/05 00:34:44;;;;;;;2.83;2.28;;;18.10;99.90;;;;;;4995614;28;20491;-40
2023/09/05 00:37:10;;;;;;;3.20;2.90;;;18.10;99.90;;;;;;4987848;28;20483;-41
2023/09/05 00:39:40;;;;;;;3.28;2.53;;;18.10;99.90;;;;;;4995493;28;20045;-38
2023/09/05 00:42:09;;;;;;;2.72;2.40;;;18.10;99.90;;;;;;4995500;28;20106;-39
2023/09/05 00:44:35;;;;;;;2.80;2.60;;;18.10;99.90;;;;;;4994882;28;20431;-38
2023/09/05 00:47:01;;;;;;;4.50;2.95;;;18.10;99.90;;;;;;4995827;28;20038;-38
2023/09/05 00:49:27;;;;;;;3.10;2.63;;;18.10;99.90;;;;;;4995559;28;20026;-38
2023/09/05 00:52:02;;;;;;;2.45;2.25;;;18.10;99.90;;;;;;4995489;28;20057;-38
2023/09/05 00:54:29;;;;;;;3.70;2.95;;;18.10;99.90;;;;;;4994964;28;20078;-53
2023/09/05 00:56:55;;;;;;;3.13;2.67;;;18.00;99.90;;;;;;4995172;28;20024;-51
2023/09/05 00:59:21;;;;;;;5.00;2.58;;;18.00;99.90;;;;;;4995379;28;20029;-52
2023/09/05 01:01:48;;;;;;;6.13;3.15;;;17.90;99.90;;;;;;4995253;28;20030;-52
2023/09/05 01:04:14;;;;;;;5.97;3.50;;;17.90;99.90;;;;;;4994770;28;20487;-53
2023/09/05 01:07:01;;;;;;;3.28;2.97;;;17.90;99.90;;;;;;4994528;28;20092;-53
2023/09/05 01:09:29;;;;;;;3.50;2.97;;;17.90;99.90;;;;;;4994684;28;20521;-55
2023/09/05 01:11:56;;;;;;;5.57;2.95;;;17.90;99.90;;;;;;4994155;28;20038;-49
2023/09/05 01:14:22;;;;;;;3.92;2.78;;;17.90;99.90;;;;;;4995080;28;20116;-38
2023/09/05 01:16:47;;;;;;;5.93;2.80;;;17.90;99.90;;;;;;4994876;28;20081;-39
2023/09/05 01:19:16;;;;;;;3.25;2.95;;;17.90;99.90;;;;;;4995007;28;20038;-38
2023/09/05 01:22:14;;;;;;;5.15;2.85;;;17.90;99.90;;;;;;4998867;28;20102;-38
2023/09/05 01:24:40;;;;;;;3.60;2.58;;;17.90;99.90;;;;;;4993855;28;20038;-38
2023/09/05 01:27:08;;;;;;;2.95;2.55;;;17.90;99.90;;;;;;4993057;28;20066;-39
2023/09/05 01:29:39;;;;;;;2.78;2.58;;;17.80;99.90;;;;;;4993953;28;20125;-38
2023/09/05 01:32:09;;;;;;;4.65;3.20;;;17.80;99.90;;;;;;4989241;28;20479;-38
2023/09/05 01:34:34;;;;;;;7.05;2.88;;;17.80;99.90;;;;;;4993580;28;20183;-38
2023/09/05 01:37:00;;;;;;;4.50;3.08;;;17.80;99.90;;;;;;4993512;28;20030;-38
2023/09/05 01:39:26;;;;;;;6.13;2.97;;;17.80;99.90;;;;;;4994521;28;20471;-37
2023/09/05 01:41:52;;;;;;;6.25;2.90;;;17.80;99.90;;;;;;4994535;28;20117;-38
2023/09/05 01:44:18;;;;;;;4.13;2.80;;;17.80;99.90;;;;;;4994462;28;20432;-37
2023/09/05 01:46:44;;;;;;;3.85;2.63;;;17.80;99.90;;;;;;4993410;28;20030;-40
2023/09/05 01:49:10;;;;;;;7.35;3.38;;;17.80;99.90;;;;;;4994519;28;20034;-37
2023/09/05 01:51:36;;;;;;;4.15;2.97;;;17.70;99.90;;;;;;4993328;28;20041;-46
2023/09/05 01:54:02;;;;;;;3.20;2.28;;;17.80;99.90;;;;;;4992861;28;20031;-41
2023/09/05 01:56:28;;;;;;;3.67;3.30;;;17.80;99.90;;;;;;4994230;28;20034;-39
2023/09/05 01:58:54;;;;;;;3.38;2.60;;;17.70;99.90;;;;;;4994273;28;20487;-39
2023/09/05 02:01:20;;;;;;;4.65;2.63;;;17.70;99.90;;;;;;4994112;28;20038;-38
2023/09/05 02:03:46;;;;;;;6.38;3.30;;;17.70;99.90;;;;;;4993374;28;20049;-38
2023/09/05 02:06:13;;;;;;;3.80;3.00;;;17.70;99.90;;;;;;4993876;28;20026;-38
2023/09/05 02:08:39;;;;;;;3.45;2.33;;;17.70;99.90;;;;;;4993042;28;20023;-39
2023/09/05 02:11:05;;;;;;;3.25;2.55;;;17.70;99.90;;;;;;4968384;28;20041;-39
2023/09/05 02:13:30;;;;;;;3.55;2.70;;;17.60;99.90;;;;;;4992087;28;20018;-41
2023/09/05 02:15:56;;;;;;;3.63;2.63;;;17.60;99.90;;;;;;4993712;28;20034;-40
2023/09/05 02:18:22;;;;;;;4.85;2.75;;;17.60;99.90;;;;;;4973517;28;20121;-38
2023/09/05 02:20:48;;;;;;;3.17;2.17;;;17.60;99.90;;;;;;4992264;28;20464;-38
2023/09/05 02:23:14;;;;;;;7.88;3.10;;;17.60;99.90;;;;;;4992560;28;20561;-38
2023/09/05 02:25:39;;;;;;;4.97;3.17;;;17.60;99.90;;;;;;4993663;28;20084;-39
2023/09/05 02:28:05;;;;;;;2.95;2.35;;;17.60;99.90;;;;;;4993980;28;20034;-52
2023/09/05 02:30:31;;;;;;;5.32;2.80;;;17.60;99.90;;;;;;4993002;28;20101;-51
2023/09/05 02:32:57;;;;;;;3.80;2.88;;;17.60;99.90;;;;;;4993540;28;20034;-52
2023/09/05 02:35:24;;;;;;;3.70;3.25;;;17.60;99.90;;;;;;5008892;28;20137;-54
2023/09/05 02:37:51;;;;;;;4.32;2.70;;;17.60;99.90;;;;;;5004450;28;20022;-53
2023/09/05 02:40:18;;;;;;;3.40;3.10;;;17.60;99.90;;;;;;4993446;28;20026;-54
2023/09/05 02:42:43;;;;;;;5.43;3.00;;;17.60;99.90;;;;;;4993864;28;20538;-53
2023/09/05 02:45:10;;;;;;;5.60;2.90;;;17.60;99.90;;;;;;4993509;28;20034;-52
2023/09/05 02:47:36;;;;;;;4.35;2.65;;;17.60;99.90;;;;;;4992753;28;20415;-52
2023/09/05 02:50:02;;;;;;;3.05;2.70;;;17.50;99.90;;;;;;4993463;28;20038;-51
2023/09/05 02:52:29;;;;;;;3.78;2.92;;;17.50;99.90;;;;;;4992702;28;20035;-52
2023/09/05 02:57:39;;;;;;;5.57;2.80;;;17.50;99.90;;;;;;4981341;28;20061;-52
2023/09/05 03:00:06;;;;;;;3.83;3.10;;;17.50;99.90;;;;;;4993647;28;20026;-52
2023/09/05 03:02:35;;;;;;;5.25;3.35;;;17.50;99.90;;;;;;4993400;28;20029;-50
2023/09/05 03:05:01;;;;;;;5.88;3.35;;;17.40;99.90;;;;;;4993580;28;20379;-49
2023/09/05 03:07:27;;;;;;;4.60;2.90;;;17.40;99.90;;;;;;4977664;28;20033;-51
2023/09/05 03:09:52;;;;;;;5.47;3.15;;;17.40;99.90;;;;;;4997370;28;20092;-53
2023/09/05 03:12:18;;;;;;;4.28;2.80;;;17.40;99.90;;;;;;4997386;28;20030;-52
2023/09/05 03:14:45;;;;;;;7.22;2.90;;;17.40;99.90;;;;;;4997468;28;20030;-53
2023/09/05 03:17:11;;;;;;;4.57;2.78;;;17.40;99.90;;;;;;4978772;28;20017;-53
2023/09/05 03:19:40;;;;;;;4.78;3.25;;;17.40;99.90;;;;;;4995840;28;20027;-52
2023/09/05 03:22:06;;;;;;;6.43;3.13;;;17.40;99.90;;;;;;4993030;28;20018;-50
2023/09/05 03:24:34;;;;;;;6.03;2.80;;;17.30;99.90;;;;;;4996528;28;20026;-53
2023/09/05 03:26:59;;;;;;;6.10;2.75;;;17.30;99.90;;;;;;4995308;28;20026;-51
2023/09/05 03:29:25;;;;;;;5.03;3.13;;;17.30;99.90;;;;;;4996837;28;20038;-51
2023/09/05 03:31:52;;;;;;;5.10;3.28;;;17.30;99.90;;;;;;4996961;28;20480;-52
2023/09/05 03:34:18;;;;;;;3.00;2.80;;;17.30;99.90;;;;;;4996688;28;20503;-54
2023/09/05 03:36:44;;;;;;;4.30;3.08;;;17.30;99.90;;;;;;4978312;28;20533;-50
2023/09/05 03:39:10;;;;;;;4.53;3.47;;;17.20;99.90;;;;;;4996177;28;20019;-51
2023/09/05 03:41:35;;;;;;;5.35;3.50;;;17.20;99.90;;;;;;4995960;28;20030;-53
2023/09/05 03:44:01;;;;;;;4.00;3.20;;;17.20;99.90;;;;;;4995047;28;20372;-51
2023/09/05 03:46:27;;;;;;;3.97;3.20;;;17.20;99.90;;;;;;4995109;28;20019;-50
2023/09/05 03:48:53;;;;;;;4.78;3.15;;;17.20;99.90;;;;;;4993702;28;20132;-51
2023/09/05 03:51:19;;;;;;;4.57;2.85;;;17.10;99.90;;;;;;4993279;28;20026;-52
2023/09/05 03:53:45;;;;;;;4.07;3.05;;;17.10;99.90;;;;;;4994829;28;20041;-50
2023/09/05 03:56:10;;;;;;;4.75;2.83;;;17.10;99.90;;;;;;4994852;28;20031;-47
2023/09/05 03:58:38;;;;;;;5.40;3.72;;;17.10;99.90;;;;;;4995800;28;20493;-53
2023/09/05 04:01:04;;;;;;;9.25;3.30;;;17.10;99.90;;;;;;4995932;28;20030;-51
2023/09/05 04:03:32;;;;;;;5.38;3.30;;;17.10;99.90;;;;;;4994484;28;20026;-52
2023/09/05 04:06:01;;;;;;;3.70;3.10;;;17.10;99.90;;;;;;4994588;28;20077;-53
2023/09/05 04:08:27;;;;;;;4.20;3.00;;;17.10;99.90;;;;;;4993368;28;20041;-51
2023/09/05 04:11:00;;;;;;;11.15;3.80;;;17.10;99.90;;;;;;4968564;28;20037;-53
2023/09/05 04:13:27;;;;;;;7.00;3.50;;;17.10;99.90;;;;;;4995453;28;20035;-52
2023/09/05 04:15:53;;;;;;;4.22;2.35;;;17.10;99.90;;;;;;4994501;28;20030;-52
2023/09/05 04:18:18;;;;;;;4.82;3.10;;;17.00;99.90;;;;;;4995376;28;20494;-51
2023/09/05 04:20:44;;;;;;;4.72;3.08;;;17.00;99.90;;;;;;4995390;28;20033;-51
2023/09/05 04:23:10;;;;;;;6.88;3.33;;;17.00;99.90;;;;;;4994288;28;20072;-52
2023/09/05 04:25:40;;;;;;;5.70;3.38;;;17.00;99.90;;;;;;4994443;28;20514;-53
2023/09/05 04:28:08;;;;;;;4.28;3.03;;;16.90;99.90;;;;;;4993922;28;20379;-50
2023/09/05 04:30:36;;;;;;;4.30;3.50;;;17.00;99.90;;;;;;4994746;28;20030;-52
2023/09/05 04:33:03;;;;;;;6.32;3.22;;;17.00;99.90;;;;;;4993783;28;20022;-53
2023/09/05 04:35:29;;;;;;;3.50;2.88;;;17.00;99.90;;;;;;4994035;28;20046;-51
2023/09/05 04:37:55;;;;;;;6.28;3.25;;;17.00;99.90;;;;;;4993822;28;20098;-53
2023/09/05 04:40:21;;;;;;;3.35;2.80;;;17.00;99.90;;;;;;4995300;28;20498;-50
2023/09/05 04:42:46;;;;;;;8.75;3.25;;;17.10;99.90;;;;;;4993613;28;20026;-53
2023/09/05 04:45:12;;;;;;;5.72;3.17;;;17.10;99.90;;;;;;4993772;28;20483;-52
2023/09/05 04:47:40;;;;;;;3.03;2.53;;;17.10;99.90;;;;;;4995615;28;20478;-51
2023/09/05 04:50:09;;;;;;;4.80;2.88;;;17.10;99.90;;;;;;4995552;28;20030;-53
2023/09/05 04:52:36;;;;;;;4.15;2.97;;;17.20;99.90;;;;;;4993470;28;20026;-51
2023/09/05 04:55:01;;;;;;;5.72;3.92;;;17.20;99.90;;;;;;4994399;28;20066;-52
2023/09/05 04:57:28;;;;;;;5.60;3.22;;;17.30;99.90;;;;;;4994367;28;20479;-53
2023/09/05 04:59:57;;;;;;;7.57;2.75;;;17.40;99.90;;;;;;4995458;28;20015;-52
2023/09/05 05:02:23;;;;;;;3.70;2.80;;;17.50;99.90;;;;;;4994338;28;20026;-53
2023/09/05 05:04:50;;;;;;;4.40;2.55;;;17.60;99.90;;;;;;4993219;28;20554;-49
2023/09/05 05:07:15;;;;;;;4.32;2.45;;;17.70;99.90;;;;;;4994011;28;20031;-37
2023/09/05 05:09:42;;;;;;;4.70;2.33;;;17.70;99.90;;;;;;4994053;28;20390;-38
2023/09/05 05:12:08;;;;;;;4.80;2.78;;;17.80;99.90;;;;;;4994227;28;20061;-40
2023/09/05 05:14:34;;;;;;;3.65;2.30;;;17.80;99.90;;;;;;4994989;28;20022;-38
2023/09/05 05:17:01;;;;;;;6.45;2.33;;;17.80;99.90;;;;;;4995076;28;20506;-39
2023/09/05 05:19:27;;;;;;;3.53;2.40;;;17.90;99.90;;;;;;4994248;28;20028;-38
2023/09/05 05:21:53;;;;;;;5.47;2.72;;;17.90;99.90;;;;;;5009296;28;20550;-38
2023/09/05 05:24:18;;;;;;;3.22;2.60;;;17.90;99.90;;;;;;4994501;28;20522;-38
2023/09/05 05:26:45;;;;;;;3.50;2.33;;;17.90;99.90;;;;;;4993711;28;20038;-39
2023/09/05 05:29:11;;;;;;;3.05;2.70;;;17.90;99.90;;;;;;4994370;28;20022;-42
2023/09/05 05:31:38;;;;;;;2.80;2.53;;;17.90;99.90;;;;;;4995012;28;20031;-40
2023/09/05 05:34:03;;;;;;;2.93;2.50;;;18.00;99.90;;;;;;4994424;28;20047;-38
2023/09/05 05:36:29;;;;;;;3.85;2.70;;;18.10;99.90;;;;;;4993663;28;20505;-38
2023/09/05 05:38:56;;;;;;;4.45;2.67;;;18.10;99.90;;;;;;4994596;28;20026;-39
2023/09/05 05:41:22;;;;;;;4.88;1.73;;;18.10;99.90;;;;;;4990884;28;20508;-39
2023/09/05 05:43:47;;;;;;;3.50;2.17;;;18.10;99.90;;;;;;4994124;28;20023;-38
2023/09/05 05:46:14;;;;;;;4.40;2.63;;;18.20;99.90;;;;;;4994095;28;20109;-39
2023/09/05 05:48:40;;;;;;;3.45;2.08;;;18.20;99.90;;;;;;4994410;28;20033;-37
2023/09/05 05:51:06;;;;;;;2.97;2.30;;;18.20;99.90;;;;;;4994212;28;20045;-38
2023/09/05 05:53:32;;;;;;;3.10;2.55;;;18.30;99.90;;;;;;4992177;28;20117;-39
2023/09/05 05:55:58;;;;;;;3.40;2.17;;;18.30;99.90;;;;;;4991085;28;20113;-52
2023/09/05 05:58:24;;;;;;;3.55;2.15;;;18.30;99.90;;;;;;4991864;28;20034;-53
2023/09/05 06:00:53;;;;;;;5.50;2.22;;;18.40;99.90;;;;;;4991287;28;20014;-55
2023/09/05 06:03:19;;;;;;;3.95;2.22;;;18.50;99.90;;;;;;4993897;28;20062;-53
2023/09/05 06:05:45;;;;;;;4.40;2.53;;;18.60;99.90;;;;;;4992494;28;20037;-50
2023/09/05 06:08:11;;;;;;;2.72;2.10;;;18.70;99.90;;;;;;4974803;28;20121;-55
2023/09/05 06:10:37;;;;;;;3.00;2.03;;;18.70;99.90;;;;;;4993379;28;20109;-54
2023/09/05 06:13:04;;;;;;;2.63;1.80;;;18.80;99.90;;;;;;4994196;28;20054;-52
2023/09/05 06:15:30;;;;;;;7.13;2.45;;;18.90;99.90;;;;;;4972536;28;20494;-52
2023/09/05 06:17:56;;;;;;;2.55;2.28;;;19.00;99.90;;;;;;4992976;28;20455;-54
2023/09/05 06:20:22;;;;;;;1.58;1.48;;;19.10;99.90;;;;;;4992257;28;20050;-51
2023/09/05 06:22:47;;;;;;;5.50;2.33;;;19.20;99.90;;;;;;4991282;28;20369;-53
2023/09/05 06:25:13;;;;;;;7.63;2.38;;;19.20;99.90;;;;;;4991755;28;20034;-53
2023/09/05 06:27:43;;;;;;;4.38;2.20;;;19.40;99.90;;;;;;4992912;28;20026;-53
2023/09/05 06:30:10;;;;;;;4.97;2.42;;;19.50;99.90;;;;;;4991459;28;20034;-48
2023/09/05 06:32:37;;;;;;;3.03;1.80;;;19.50;99.90;;;;;;4985221;28;20057;-53
2023/09/05 06:35:05;;;;;;;7.28;2.67;;;19.60;99.90;;;;;;4990666;28;20442;-53
2023/09/05 06:37:32;;;;;;;6.90;2.63;;;19.70;99.90;;;;;;4990799;28;20431;-53
2023/09/05 06:39:58;;;;;;;6.75;2.17;;;19.70;99.90;;;;;;4993623;28;20053;-54
2023/09/05 06:42:24;;;;;;;4.53;2.40;;;19.80;99.90;;;;;;4992078;28;20072;-53
2023/09/05 06:44:49;;;;;;;2.58;2.20;;;19.80;99.90;;;;;;4992697;28;20050;-54
2023/09/05 06:47:15;;;;;;;2.70;1.98;;;19.90;99.90;;;;;;4991549;28;20056;-47
2023/09/05 06:49:41;;;;;;;5.70;2.30;;;19.90;99.90;;;;;;4991272;28;20041;-52
2023/09/05 06:52:06;;;;;;;2.22;2.00;;;20.00;99.90;;;;;;4990998;28;20113;-54
2023/09/05 06:54:32;;;;;;;4.22;1.60;;;20.10;99.90;;;;;;4990674;28;20034;-53
2023/09/05 06:56:58;;;;;;;4.57;1.80;;;20.20;99.90;;;;;;4985278;28;20050;-51
2023/09/05 06:59:24;;;;;;;2.22;1.92;;;20.30;99.90;;;;;;4992629;28;20475;-52
2023/09/05 07:01:49;;;;;;;2.75;2.20;;;20.30;99.90;;;;;;4991227;28;20022;-54
2023/09/05 07:04:15;;;;;;;6.78;2.40;;;20.50;99.90;;;;;;4974461;28;20573;-53
2023/09/05 07:06:41;;;;;;;3.40;2.03;;;20.60;99.90;;;;;;4975133;28;20133;-53
2023/09/05 07:09:07;;;;;;;9.20;2.08;;;20.60;99.90;;;;;;4990722;28;20041;-52
2023/09/05 07:11:36;;;;;;;2.33;1.83;;;20.70;99.90;;;;;;4989382;28;20535;-54
2023/09/05 07:14:03;;;;;;;2.45;2.05;;;20.90;99.90;;;;;;4987090;28;20139;-50
2023/09/05 07:16:29;;;;;;;2.45;2.13;;;20.90;99.90;;;;;;4991702;28;20058;-51
2023/09/05 07:18:55;;;;;;;2.63;1.77;;;21.00;99.90;;;;;;4986991;28;20014;-54
2023/09/05 07:21:21;;;;;;;2.75;1.60;;;21.20;99.90;;;;;;4974142;28;20518;-51
2023/09/05 07:23:47;;;;;;;2.72;2.30;;;21.30;99.90;;;;;;4988566;28;20052;-51
2023/09/05 07:26:12;;;;;;;2.40;1.90;;;21.30;99.90;;;;;;4977344;28;20053;-54
2023/09/05 07:28:38;;;;;;;3.17;2.25;;;21.40;99.90;;;;;;4990162;28;20400;-53
2023/09/05 07:31:04;;;;;;;2.58;1.88;;;21.40;99.90;;;;;;4990475;28;20034;-52
2023/09/05 07:33:30;;;;;;;6.22;1.95;;;21.50;99.90;;;;;;4984306;28;20060;-50
2023/09/05 07:35:55;;;;;;;4.57;2.20;;;21.60;99.90;;;;;;4991297;28;20507;-37
2023/09/05 07:38:21;;;;;;;4.93;2.05;;;21.60;99.90;;;;;;4986497;28;20031;-37
2023/09/05 07:40:50;;;;;;;4.72;2.30;;;21.70;99.90;;;;;;4991107;28;20027;-37
2023/09/05 07:43:16;;;;;;;1.73;1.35;;;21.80;99.90;;;;;;4961829;28;20027;-39
2023/09/05 07:45:42;;;;;;;2.85;1.85;;;21.90;99.90;;;;;;4984357;28;20122;-37
2023/09/05 07:48:08;;;;;;;2.40;1.70;;;22.00;99.90;;;;;;4991324;28;20035;-37
2023/09/05 07:50:35;;;;;;;3.30;2.47;;;22.10;99.90;;;;;;4991597;28;20077;-36
2023/09/05 07:53:00;;;;;;;1.63;1.50;;;22.20;99.90;;;;;;4994549;28;20034;-37
2023/09/05 07:55:26;;;;;;;3.33;2.20;;;22.30;99.90;;;;;;4992625;28;20583;-35
2023/09/05 07:57:52;;;;;;;2.15;1.58;;;22.40;99.90;;;;;;4995974;28;20391;-37
2023/09/05 08:00:19;;;;;;;4.65;1.40;;;22.50;99.90;;;;;;4995710;28;20058;-37
2023/09/05 08:02:45;;;;;;;2.00;1.87;;;22.60;99.90;;;;;;4995863;28;20480;-36
2023/09/05 08:05:11;;;;;;;3.45;2.05;;;22.60;99.90;;;;;;4994268;28;20293;-38
2023/09/05 08:07:38;;;;;;;10.40;1.73;;;22.60;99.90;;;;;;4978520;28;20026;-37
2023/09/05 08:10:05;;;;;;;2.92;1.60;;;22.70;99.90;;;;;;4991550;28;20061;-39
2023/09/05 08:12:32;;;;;;;;;;;22.80;99.90;;;;;;4993170;28;20495;-42
2023/09/05 08:14:58;;;;;;;2.42;1.67;;;22.90;99.90;;;;;;4993425;28;20621;-37
2023/09/05 08:17:23;;;;;;;2.47;1.42;;;23.00;99.90;;;;;;4995715;28;20073;-37
2023/09/05 08:19:49;;;;;;;2.90;1.88;;;23.10;99.90;;;;;;4994286;28;20015;-39
2023/09/05 08:22:15;;;;;;;4.07;1.75;;;23.20;99.90;;;;;;4995167;28;20023;-37
2023/09/05 08:24:41;;;;;;;6.00;2.30;;;23.30;99.90;;;;;;4996042;28;20446;-37
2023/09/05 08:27:15;;;;;;;4.97;2.20;;;23.40;99.90;;;;;;4993432;28;20030;-38
2023/09/05 08:29:41;;;;;;;1.63;1.35;;;23.50;99.90;;;;;;4994989;28;20026;-39
2023/09/05 08:32:07;;;;;;;4.03;2.70;;;23.70;99.90;;;;;;4994786;28;20077;-38
2023/09/05 08:34:33;;;;;;;8.23;1.58;;;23.80;99.90;;;;;;4993137;28;20062;-39
2023/09/05 08:37:02;;;;;;;4.35;1.92;;;23.90;99.90;;;;;;4989425;28;20077;-40
2023/09/05 08:39:28;;;;;;;3.45;1.80;;;23.90;99.90;;;;;;4993216;28;20109;-38
2023/09/05 08:41:56;;;;;;;2.17;1.95;;;24.00;99.90;;;;;;4994082;28;20110;-40
2023/09/05 08:44:23;;;;;;;4.82;1.90;;;24.00;99.90;;;;;;4990131;28;20068;-39
2023/09/05 08:46:52;;;;;;;2.58;1.92;;;24.10;99.90;;;;;;4991963;28;20502;-38
2023/09/05 08:49:21;;;;;;;4.20;2.35;;;24.10;99.90;;;;;;4994064;28;20130;-38
2023/09/05 08:51:53;;;;;;;2.10;1.48;;;24.30;99.90;;;;;;4994247;28;20161;-37
2023/09/05 08:54:19;;;;;;;3.42;1.80;;;24.30;99.90;;;;;;4994136;28;20030;-54
2023/09/05 08:56:45;;;;;;;2.70;1.70;;;24.40;99.90;;;;;;4991869;28;20085;-53
2023/09/05 08:59:10;;;;;;;4.47;2.10;;;24.50;99.90;;;;;;4987323;28;20022;-54
2023/09/05 09:01:38;;;;;;;8.25;2.00;;;24.60;99.90;;;;;;4993954;28;20376;-53
2023/09/05 09:04:04;;;;;;;3.20;1.42;;;24.70;99.90;;;;;;4990767;28;20100;-50
2023/09/05 09:06:29;;;;;;;4.22;1.67;;;24.80;99.90;;;;;;4990469;28;20014;-48
2023/09/05 09:08:55;;;;;;;7.78;1.52;;;24.80;99.90;;;;;;4992013;28;20061;-53
2023/09/05 09:11:22;;;;;;;2.90;1.85;;;24.90;99.90;;;;;;4991201;28;20030;-53
2023/09/05 09:13:52;;;;;;;2.83;1.70;;;24.90;99.90;;;;;;4991182;28;21780;-53
2023/09/05 09:16:18;;;;;;;1.70;1.60;;;24.90;99.90;;;;;;4991681;28;20050;-47
2023/09/05 09:18:59;;;;;;;5.15;1.27;;;25.10;99.90;;;;;;4992448;28;20030;-54
2023/09/05 09:21:27;;;;;;;1.83;1.60;;;25.20;99.90;;;;;;4988323;28;20030;-38
2023/09/05 09:23:58;;;;;;;4.25;1.50;;;25.30;99.90;;;;;;4993712;28;20109;-40
2023/09/05 09:26:26;;;;;;;4.55;1.92;;;25.40;99.90;;;;;;4989690;28;20030;-37
2023/09/05 09:28:52;;;;;;;2.33;1.83;;;25.60;99.90;;;;;;4992736;28;20110;-44
2023/09/05 09:31:25;;;;;;;2.30;1.30;;;25.80;99.90;;;;;;4993703;28;20033;-42
2023/09/05 09:33:57;;;;;;;3.58;1.83;;;25.90;99.90;;;;;;4994607;28;20027;-39
2023/09/05 09:36:23;;;;;;;2.55;1.60;;;25.90;99.90;;;;;;4993928;28;20452;-40
2023/09/05 09:38:48;;;;;;;2.35;1.60;;;26.10;99.90;;;;;;4993877;28;20061;-41
2023/09/05 09:41:16;;;;;;;2.72;1.90;;;26.10;99.90;;;;;;4993265;28;20069;-39
2023/09/05 09:43:41;;;;;;;1.75;1.52;;;26.20;99.90;;;;;;4991178;28;20019;-38
2023/09/05 09:46:11;;;;;;;2.92;1.40;;;26.30;99.90;;;;;;4991169;28;20032;-42
2023/09/05 09:48:38;;;;;;;2.10;1.33;;;26.50;99.90;;;;;;4982598;28;20022;-42
2023/09/05 09:51:06;;;;;;;3.90;1.50;;;26.60;99.90;;;;;;4994404;28;20113;-39
2023/09/05 09:53:46;;;;;;;7.28;1.52;;;26.80;99.90;;;;;;4993557;28;20069;-38
2023/09/05 09:56:12;;;;;;;3.03;1.60;;;26.90;99.90;;;;;;4993673;28;20088;-44
2023/09/05 09:58:40;;;;;;;2.15;1.55;;;27.00;99.90;;;;;;4993624;28;20038;-38
2023/09/05 10:01:11;;;;;;;1.95;1.27;;;27.10;99.90;;;;;;4976638;28;20026;-40
2023/09/05 10:03:44;;;;;;;3.10;1.70;;;27.20;99.90;;;;;;4994293;28;20030;-38
2023/09/05 10:06:10;;;;;;;1.45;1.23;;;27.10;99.90;;;;;;4993658;28;20063;-39
2023/09/05 10:08:37;;;;;;;2.77;1.70;;;27.00;99.90;;;;;;4993480;28;20585;-39
2023/09/05 10:11:03;;;;;;;2.63;1.80;;;26.90;99.90;;;;;;4994134;28;20121;-40
2023/09/05 10:13:33;;;;;;;4.68;1.77;;;27.00;99.90;;;;;;4993433;28;20471;-39
2023/09/05 10:16:02;;;;;;;3.38;1.63;;;27.10;99.90;;;;;;4993809;28;20030;-41
2023/09/05 10:18:30;;;;;;;2.80;1.70;;;27.20;99.90;;;;;;4975167;28;20041;-55
2023/09/05 10:20:58;;;;;;;3.38;2.25;;;27.30;99.90;;;;;;4993907;28;20026;-53
2023/09/05 10:23:24;;;;;;;2.90;2.13;;;27.40;99.90;;;;;;4993161;28;20023;-54
2023/09/05 10:25:51;;;;;;;2.78;1.92;;;27.60;99.90;;;;;;4976432;28;20506;-53
2023/09/05 10:28:18;;;;;;;3.33;1.85;;;27.80;99.90;;;;;;5006588;28;20501;-53
2023/09/05 10:30:49;;;;;;;2.08;1.25;;;28.00;99.90;;;;;;5006022;28;20483;-53
2023/09/05 10:33:17;;;;;;;6.55;1.60;;;28.20;99.90;;;;;;4974389;28;20030;-51
2023/09/05 10:35:47;;;;;;;6.50;1.60;;;28.20;99.90;;;;;;4986889;28;20101;-53
2023/09/05 10:38:14;;;;;;;1.98;1.77;;;28.20;99.90;;;;;;4993076;28;20556;-53
2023/09/05 10:40:40;;;;;;;2.95;1.85;;;28.20;99.90;;;;;;4993932;28;20034;-37
2023/09/05 10:43:15;;;;;;;2.53;1.60;;;28.30;99.90;;;;;;4992464;28;20550;-38
2023/09/05 10:45:40;;;;;;;1.92;1.70;;;28.30;99.90;;;;;;4976185;28;20038;-37
2023/09/05 10:48:40;;;;;;;2.95;2.08;;;28.40;99.90;;;;;;4991292;28;20541;-37
2023/09/05 10:51:13;;;;;;;2.83;1.58;;;28.40;99.90;;;;;;4993708;28;20105;-40
2023/09/05 10:53:46;;;;;;;4.65;1.88;;;28.20;99.90;;;;;;4983782;28;20068;-37
2023/09/05 10:56:40;;;;;;;2.80;1.90;;;28.30;99.90;;;;;;4993452;28;20395;-38
2023/09/05 10:59:29;;;;;;;2.20;2.00;;;28.30;99.90;;;;;;4992288;28;20034;-40
2023/09/05 11:02:02;;;;;;;3.53;1.65;;;28.30;99.90;;;;;;4988303;28;20023;-36
2023/09/05 11:04:34;;;;;;;2.15;2.03;;;28.40;99.90;;;;;;4991096;28;20034;-39
2023/09/05 11:07:08;;;;;;;2.42;1.70;;;28.40;99.90;;;;;;4983304;28;20038;-38
2023/09/05 11:09:46;;;;;;;1.77;1.65;;;28.60;99.90;;;;;;4989838;28;20058;-38
2023/09/05 11:12:12;;;;;;;2.85;2.08;;;28.60;99.90;;;;;;4975888;28;20394;-37
2023/09/05 11:14:38;;;;;;;1.60;1.35;;;28.70;99.90;;;;;;4993026;28;20037;-37
2023/09/05 11:17:04;;;;;;;2.13;1.60;;;28.80;99.90;;;;;;4993300;28;20529;-38
2023/09/05 11:19:40;;;;;;;2.67;1.92;;;28.70;99.90;;;;;;4991921;28;20105;-38
2023/09/05 11:22:11;;;;;;;2.03;1.60;;;28.70;99.90;;;;;;4987750;28;20026;-39
2023/09/05 11:24:45;;;;;;;2.83;1.90;;;28.70;99.90;;;;;;4991681;28;20279;-40
2023/09/05 11:27:11;;;;;;;3.05;1.67;;;28.60;99.90;;;;;;4989033;28;20073;-39
2023/09/05 11:29:39;;;;;;;5.77;1.60;;;28.60;99.90;;;;;;4981457;28;20380;-39
2023/09/05 11:32:06;;;;;;;3.33;1.88;;;28.70;99.90;;;;;;4990223;28;20026;-38
2023/09/05 11:34:33;;;;;;;1.50;1.40;;;28.90;99.90;;;;;;4990785;28;20050;-41
2023/09/05 11:37:00;;;;;;;;;;;29.00;99.90;;;;;;4987055;28;20019;-38
2023/09/05 11:39:29;;;;;;;4.15;1.70;;;29.10;99.90;;;;;;4990005;28;20359;-38
2023/09/05 11:41:58;;;;;;;3.97;1.67;;;29.20;99.90;;;;;;4990801;28;20391;-42
2023/09/05 11:44:38;;;;;;;2.90;1.92;;;29.20;99.90;;;;;;4995550;28;20041;-40
2023/09/05 11:47:04;;;;;;;2.40;1.52;;;29.30;99.90;;;;;;4995906;28;20601;-37
2023/09/05 11:49:32;;;;;;;2.03;1.60;;;29.20;99.90;;;;;;4996078;28;20430;-41
2023/09/05 11:52:00;;;;;;;3.35;1.75;;;29.20;99.90;;;;;;4995978;28;20484;-38
2023/09/05 11:54:30;;;;;;;2.60;1.45;;;29.20;99.90;;;;;;4996095;28;20034;-39
2023/09/05 11:56:56;;;;;;;2.38;1.23;;;29.30;99.90;;;;;;4987815;28;20018;-37
2023/09/05 11:59:23;;;;;;;3.30;1.47;;;29.30;99.90;;;;;;4996757;28;20023;-39
2023/09/05 12:01:51;;;;;;;6.38;1.58;;;29.50;99.90;;;;;;4996484;28;20530;-37
2023/09/05 12:04:17;;;;;;;1.90;1.40;;;29.50;99.90;;;;;;4995094;28;20085;-38
2023/09/05 12:06:48;;;;;;;2.55;1.83;;;29.50;99.90;;;;;;4995613;28;20399;-38
2023/09/05 12:09:13;;;;;;;6.03;2.28;;;29.50;99.90;;;;;;4995601;28;20053;-38
2023/09/05 12:11:40;;;;;;;4.00;1.45;;;29.40;99.90;;;;;;4994745;28;20023;-39
2023/09/05 12:14:06;;;;;;;1.80;1.17;;;29.50;99.90;;;;;;4996118;28;20487;-40
2023/09/05 12:16:32;;;;;;;3.17;1.98;;;29.50;99.90;;;;;;4996300;28;20065;-39
2023/09/05 12:18:59;;;;;;;4.18;1.45;;;29.50;99.90;;;;;;4996151;28;20018;-40
2023/09/05 12:21:28;;;;;;;1.48;1.33;;;29.60;99.90;;;;;;4960360;28;20054;-40
2023/09/05 12:23:53;;;;;;;2.05;1.40;;;29.70;99.90;;;;;;4996362;28;20033;-39
2023/09/05 12:26:19;;;;;;;1.65;1.42;;;29.80;99.90;;;;;;4996067;28;20030;-41
2023/09/05 12:28:58;;;;;;;2.25;1.42;;;29.90;99.90;;;;;;4996258;28;20039;-38
2023/09/05 12:31:23;;;;;;;2.65;1.55;;;30.00;99.90;;;;;;4995124;28;20034;-39
2023/09/05 12:33:49;;;;;;;2.50;1.80;;;30.00;99.90;;;;;;4995250;28;20036;-52
2023/09/05 12:36:14;;;;;;;1.90;1.73;;;30.20;99.90;;;;;;4995681;28;20529;-53
2023/09/05 12:38:40;;;;;;;2.13;1.92;;;30.30;99.90;;;;;;4994344;28;20033;-54
2023/09/05 12:41:07;;;;;;;2.25;2.05;;;30.40;99.90;;;;;;4994655;28;20101;-52
2023/09/05 12:43:32;;;;;;;4.47;1.38;;;30.40;99.90;;;;;;4995763;28;20536;-51
2023/09/05 12:45:58;;;;;;;5.72;1.63;;;30.40;99.90;;;;;;4994932;28;20109;-54
2023/09/05 12:48:24;;;;;;;3.13;1.65;;;30.50;99.90;;;;;;4994640;28;20565;-48
2023/09/05 12:50:51;;;;;;;1.60;1.50;;;30.60;99.60;;;;;;4994888;28;20605;-50